Time;durP1;ratioP1;P1;durP2;ratioP2;P2;SDS_P1;SDS_P2;PMS_P1;PMS_P2;Temp;Humidity;BMP_temperature;BMP_pressure;BME280_temperature;BME280_humidity;BME280_pressure;Samples;Min_cycle;Max_cycle;Signal;HPM_P1;HPM_P2
2022/08/26 00:00:39;;;;;;;15.83;13.33;;;21.90;99.90;;;;;;5096514;28;20452;-62
2022/08/26 00:03:05;;;;;;;12.60;11.17;;;21.80;99.90;;;;;;5096431;28;20537;-62
2022/08/26 00:05:32;;;;;;;13.83;12.20;;;21.70;99.90;;;;;;5096345;28;20450;-62
2022/08/26 00:08:00;;;;;;;13.20;11.87;;;21.70;99.90;;;;;;5096214;28;20449;-62
2022/08/26 00:10:27;;;;;;;15.67;12.10;;;21.70;99.90;;;;;;5096339;28;20552;-62
2022/08/26 00:12:54;;;;;;;11.70;10.70;;;21.70;99.90;;;;;;5096272;28;20473;-62
2022/08/26 00:15:22;;;;;;;13.73;10.77;;;21.70;99.90;;;;;;5096202;28;20453;-61
2022/08/26 00:17:49;;;;;;;13.60;11.87;;;21.70;99.90;;;;;;5096147;28;20507;-62
2022/08/26 00:20:20;;;;;;;11.77;10.77;;;21.70;99.90;;;;;;5095951;28;20457;-62
2022/08/26 00:22:46;;;;;;;19.47;12.70;;;21.70;99.90;;;;;;5096274;28;20453;-62
2022/08/26 00:25:15;;;;;;;12.73;11.60;;;21.80;99.90;;;;;;5096131;28;20446;-62
2022/08/26 00:27:42;;;;;;;13.40;12.20;;;21.80;99.90;;;;;;5096028;28;20446;-62
2022/08/26 00:30:12;;;;;;;14.40;12.53;;;21.70;99.90;;;;;;5095829;28;20474;-62
2022/08/26 00:32:38;;;;;;;11.77;10.67;;;21.60;99.90;;;;;;5095826;28;20446;-62
2022/08/26 00:35:07;;;;;;;12.40;11.30;;;21.70;99.90;;;;;;5095803;28;20539;-62
2022/08/26 00:37:33;;;;;;;13.17;11.73;;;21.60;99.90;;;;;;5095362;28;20455;-62
2022/08/26 00:40:00;;;;;;;13.17;11.87;;;21.50;99.90;;;;;;5094963;28;20734;-62
2022/08/26 00:42:28;;;;;;;13.80;12.40;;;21.40;99.90;;;;;;5095784;28;20453;-62
2022/08/26 00:44:55;;;;;;;13.20;11.03;;;21.30;99.90;;;;;;5095594;28;20446;-62
2022/08/26 00:47:27;;;;;;;14.30;12.70;;;21.30;99.90;;;;;;5095307;28;20535;-62
2022/08/26 00:49:55;;;;;;;12.23;11.13;;;21.40;99.90;;;;;;5095645;28;20482;-62
2022/08/26 00:52:22;;;;;;;23.20;12.33;;;21.30;99.90;;;;;;5095368;28;20447;-62
2022/08/26 00:54:53;;;;;;;18.17;11.63;;;21.30;99.90;;;;;;5095476;28;20446;-62
2022/08/26 00:57:21;;;;;;;20.67;12.70;;;21.40;99.90;;;;;;5095435;28;20451;-61
2022/08/26 00:59:53;;;;;;;12.60;11.33;;;21.40;99.90;;;;;;5095199;28;20454;-62
2022/08/26 01:02:19;;;;;;;12.80;11.50;;;21.50;99.90;;;;;;5095535;28;20520;-62
2022/08/26 01:04:47;;;;;;;14.27;11.67;;;21.60;99.90;;;;;;5095392;28;20451;-62
2022/08/26 01:07:14;;;;;;;14.20;11.93;;;21.60;99.90;;;;;;5095394;28;20446;-62
2022/08/26 01:09:41;;;;;;;14.57;13.03;;;21.70;99.90;;;;;;5095091;28;20565;-62
2022/08/26 01:12:08;;;;;;;14.83;11.53;;;21.70;99.90;;;;;;5095046;28;20457;-62
2022/08/26 01:14:36;;;;;;;14.50;12.20;;;21.70;99.90;;;;;;5095025;28;20455;-62
2022/08/26 01:17:06;;;;;;;13.40;12.17;;;21.70;99.90;;;;;;5095160;28;20446;-62
2022/08/26 01:19:40;;;;;;;13.50;11.60;;;21.50;99.90;;;;;;5095088;28;20446;-62
2022/08/26 01:22:10;;;;;;;14.10;11.70;;;21.50;99.90;;;;;;5094943;28;20442;-62
2022/08/26 01:24:39;;;;;;;13.70;12.40;;;21.50;99.90;;;;;;5094903;28;20809;-62
2022/08/26 01:27:10;;;;;;;13.73;12.17;;;21.50;99.90;;;;;;5094689;28;20445;-62
2022/08/26 01:29:39;;;;;;;13.73;10.83;;;21.50;99.90;;;;;;5094813;28;20482;-62
2022/08/26 01:32:08;;;;;;;12.83;11.00;;;21.50;99.90;;;;;;5094817;28;20446;-62
2022/08/26 01:34:37;;;;;;;14.20;11.87;;;21.50;99.90;;;;;;5094728;28;20450;-62
2022/08/26 01:37:08;;;;;;;13.00;11.30;;;21.60;99.90;;;;;;5094670;28;20443;-61
2022/08/26 01:39:36;;;;;;;13.80;12.50;;;21.60;99.90;;;;;;5094527;28;20681;-62
2022/08/26 01:42:07;;;;;;;14.50;12.40;;;21.60;99.90;;;;;;5094715;28;20446;-62
2022/08/26 01:44:43;;;;;;;12.47;11.27;;;21.60;99.90;;;;;;5094662;28;20453;-62
2022/08/26 01:47:11;;;;;;;13.60;11.43;;;21.60;99.90;;;;;;5094429;28;20797;-62
2022/08/26 01:49:38;;;;;;;13.87;12.30;;;21.60;99.90;;;;;;5093875;28;20495;-62
2022/08/26 01:52:07;;;;;;;13.20;12.00;;;21.70;99.90;;;;;;5094240;28;20473;-62
2022/08/26 01:54:34;;;;;;;14.67;11.23;;;21.60;99.90;;;;;;5094441;28;20964;-62
2022/08/26 01:57:02;;;;;;;12.93;11.73;;;21.60;99.90;;;;;;5094330;28;20453;-62
2022/08/26 01:59:30;;;;;;;13.70;11.67;;;21.50;99.90;;;;;;5094294;28;20813;-62
2022/08/26 02:01:57;;;;;;;14.70;13.37;;;21.40;99.90;;;;;;5094053;28;20930;-62
2022/08/26 02:04:27;;;;;;;16.00;13.13;;;21.10;99.90;;;;;;5094019;28;20457;-62
2022/08/26 02:06:56;;;;;;;16.97;12.80;;;21.00;99.90;;;;;;5094166;28;20457;-62
2022/08/26 02:09:23;;;;;;;13.60;12.17;;;21.10;99.90;;;;;;5094078;28;20493;-62
2022/08/26 02:11:50;;;;;;;13.90;11.50;;;21.20;99.90;;;;;;5094048;28;20805;-62
2022/08/26 02:14:21;;;;;;;15.97;12.90;;;21.30;99.90;;;;;;5093923;28;20881;-62
2022/08/26 02:16:52;;;;;;;23.80;13.17;;;21.40;99.90;;;;;;5093767;28;20456;-62
2022/08/26 02:19:22;;;;;;;13.73;12.23;;;21.40;99.90;;;;;;5094015;28;20571;-62
2022/08/26 02:21:50;;;;;;;17.10;11.90;;;21.40;99.90;;;;;;5093689;28;20451;-62
2022/08/26 02:24:19;;;;;;;15.37;12.10;;;21.50;99.90;;;;;;5093794;28;20443;-62
2022/08/26 02:26:46;;;;;;;14.17;12.30;;;21.60;99.90;;;;;;5093746;28;20451;-62
2022/08/26 02:29:19;;;;;;;18.17;12.63;;;21.50;99.90;;;;;;5093504;28;20446;-62
2022/08/26 02:31:47;;;;;;;14.63;12.87;;;21.00;99.90;;;;;;5093591;28;20447;-62
2022/08/26 02:34:19;;;;;;;18.63;12.13;;;20.90;99.90;;;;;;5093659;28;20447;-62
2022/08/26 02:36:45;;;;;;;14.13;12.83;;;21.00;99.90;;;;;;5093694;28;20906;-61
2022/08/26 02:39:12;;;;;;;14.40;11.97;;;21.00;99.90;;;;;;5093581;28;20453;-62
2022/08/26 02:41:39;;;;;;;17.77;13.47;;;21.00;99.90;;;;;;5093473;28;20537;-62
2022/08/26 02:44:06;;;;;;;18.03;13.00;;;20.90;99.90;;;;;;5093368;28;20890;-62
2022/08/26 02:46:32;;;;;;;15.00;12.60;;;20.80;99.90;;;;;;5093477;28;20841;-62
2022/08/26 02:49:01;;;;;;;13.47;11.93;;;20.80;99.90;;;;;;5093104;28;20474;-62
2022/08/26 02:51:28;;;;;;;13.20;11.30;;;20.80;99.90;;;;;;5093232;28;20518;-61
2022/08/26 02:53:55;;;;;;;14.90;13.03;;;20.80;99.90;;;;;;5093337;28;20454;-62
2022/08/26 02:56:22;;;;;;;18.80;11.93;;;20.70;99.90;;;;;;5093176;28;20443;-62
2022/08/26 02:58:49;;;;;;;14.77;13.17;;;20.80;99.90;;;;;;5093080;28;20542;-62
2022/08/26 03:01:23;;;;;;;14.43;12.73;;;20.80;99.90;;;;;;5092560;28;20976;-62
2022/08/26 03:03:50;;;;;;;13.73;12.30;;;20.80;99.90;;;;;;5093224;28;20553;-62
2022/08/26 03:06:17;;;;;;;17.40;14.10;;;20.70;99.90;;;;;;5093116;28;20499;-62
2022/08/26 03:08:45;;;;;;;14.07;12.53;;;20.70;99.90;;;;;;5093054;28;20543;-61
2022/08/26 03:11:11;;;;;;;17.47;11.43;;;20.80;99.90;;;;;;5092855;28;20482;-61
2022/08/26 03:13:38;;;;;;;14.77;13.30;;;20.80;99.90;;;;;;5093221;28;21052;-61
2022/08/26 03:16:05;;;;;;;14.90;12.73;;;20.80;99.90;;;;;;5093036;28;20450;-61
2022/08/26 03:18:32;;;;;;;16.47;14.30;;;20.80;99.90;;;;;;5093009;28;20793;-61
2022/08/26 03:21:04;;;;;;;16.67;15.13;;;20.60;99.90;;;;;;5092739;28;20450;-62
2022/08/26 03:23:30;;;;;;;13.93;12.53;;;20.50;99.90;;;;;;5092861;28;20451;-62
2022/08/26 03:25:58;;;;;;;13.43;12.23;;;20.40;99.90;;;;;;5093076;28;20453;-61
2022/08/26 03:28:25;;;;;;;19.20;13.23;;;20.40;99.90;;;;;;5092997;28;20489;-62
2022/08/26 03:30:50;;;;;;;13.40;12.10;;;20.40;99.90;;;;;;5092852;28;20482;-62
2022/08/26 03:33:17;;;;;;;14.40;12.90;;;20.40;99.90;;;;;;5092817;28;21017;-62
2022/08/26 03:35:46;;;;;;;15.63;14.03;;;20.20;99.90;;;;;;5092815;28;20245;-61
2022/08/26 03:38:13;;;;;;;16.47;12.90;;;20.00;99.90;;;;;;5092671;28;20454;-62
2022/08/26 03:40:41;;;;;;;14.83;13.07;;;20.10;99.90;;;;;;5092894;28;20446;-62
2022/08/26 03:43:10;;;;;;;14.53;13.13;;;20.20;99.90;;;;;;5092861;28;20458;-62
2022/08/26 03:45:37;;;;;;;15.10;12.70;;;20.40;99.90;;;;;;5092587;28;20855;-61
2022/08/26 03:48:04;;;;;;;14.70;13.17;;;20.50;99.90;;;;;;5092510;28;20481;-61
2022/08/26 03:50:31;;;;;;;14.90;13.47;;;20.50;99.90;;;;;;5092514;28;20474;-62
2022/08/26 03:52:57;;;;;;;15.80;12.57;;;20.30;99.90;;;;;;5092611;28;20443;-62
2022/08/26 03:55:26;;;;;;;16.00;13.03;;;20.10;99.90;;;;;;5092772;28;20446;-61
2022/08/26 03:57:53;;;;;;;16.07;13.50;;;20.10;99.90;;;;;;5092979;28;20442;-62
2022/08/26 04:00:21;;;;;;;21.37;14.67;;;20.00;99.90;;;;;;5092584;28;20446;-61
2022/08/26 04:02:49;;;;;;;13.37;12.07;;;19.80;99.90;;;;;;5092560;28;20443;-62
2022/08/26 04:05:19;;;;;;;14.43;13.03;;;19.90;99.90;;;;;;5092424;28;20442;-62
2022/08/26 04:07:46;;;;;;;13.53;12.10;;;20.00;99.90;;;;;;5092734;28;20501;-61
2022/08/26 04:10:16;;;;;;;14.10;12.60;;;20.20;99.90;;;;;;5092585;28;20821;-62
2022/08/26 04:12:43;;;;;;;13.27;11.83;;;20.30;99.90;;;;;;5093269;28;20451;-62
2022/08/26 04:15:12;;;;;;;14.53;12.93;;;20.50;99.90;;;;;;5096251;28;20946;-62
2022/08/26 04:17:40;;;;;;;12.90;11.80;;;20.50;99.90;;;;;;5096132;28;20533;-62
2022/08/26 04:20:08;;;;;;;13.17;11.70;;;20.60;99.90;;;;;;5095958;28;20459;-62
2022/08/26 04:22:34;;;;;;;18.27;13.30;;;20.70;99.90;;;;;;5096149;28;20542;-62
2022/08/26 04:25:01;;;;;;;13.10;11.80;;;20.70;99.90;;;;;;5095895;28;20946;-62
2022/08/26 04:27:28;;;;;;;23.33;13.53;;;20.80;99.90;;;;;;5095928;28;20525;-62
2022/08/26 04:29:54;;;;;;;14.33;13.03;;;20.80;99.90;;;;;;5095750;28;20449;-61
2022/08/26 04:32:21;;;;;;;21.30;13.27;;;20.80;99.90;;;;;;5095675;28;20452;-62
2022/08/26 04:34:48;;;;;;;16.17;12.93;;;20.80;99.90;;;;;;5095982;28;20813;-61
2022/08/26 04:37:15;;;;;;;13.93;12.53;;;20.60;99.90;;;;;;5095885;28;20984;-62
2022/08/26 04:39:42;;;;;;;15.73;13.90;;;20.60;99.90;;;;;;5095851;28;20461;-61
2022/08/26 04:42:08;;;;;;;14.67;13.23;;;20.50;99.90;;;;;;5095713;28;20450;-61
2022/08/26 04:44:37;;;;;;;17.87;13.20;;;20.50;99.90;;;;;;5095610;28;20500;-61
2022/08/26 04:47:04;;;;;;;22.97;13.97;;;20.50;99.90;;;;;;5095209;28;20499;-62
2022/08/26 04:49:30;;;;;;;13.20;12.10;;;20.30;99.90;;;;;;5095426;28;21016;-61
2022/08/26 04:51:58;;;;;;;18.10;13.50;;;20.40;99.90;;;;;;5095489;28;20488;-62
2022/08/26 04:54:25;;;;;;;19.37;13.77;;;20.40;99.90;;;;;;5095452;28;20457;-61
2022/08/26 04:56:52;;;;;;;17.13;12.87;;;20.50;99.90;;;;;;5095412;28;20446;-61
2022/08/26 04:59:18;;;;;;;15.53;13.30;;;20.50;99.90;;;;;;5095285;28;20537;-61
2022/08/26 05:01:47;;;;;;;18.23;12.43;;;20.30;99.90;;;;;;5095446;28;20442;-61
2022/08/26 05:04:14;;;;;;;17.47;13.57;;;20.30;99.90;;;;;;5095327;28;20537;-62
2022/08/26 05:06:40;;;;;;;19.63;14.60;;;20.40;99.90;;;;;;5095270;28;20455;-62
2022/08/26 05:09:08;;;;;;;23.10;14.83;;;20.60;99.90;;;;;;5095065;28;20526;-61
2022/08/26 05:11:36;;;;;;;17.80;14.73;;;20.60;99.90;;;;;;5094805;28;20478;-61
2022/08/26 05:14:04;;;;;;;17.47;14.50;;;20.70;99.90;;;;;;5094863;28;20449;-62
2022/08/26 05:16:31;;;;;;;36.67;30.37;;;20.80;99.90;;;;;;5095237;28;20465;-61
2022/08/26 05:18:57;;;;;;;27.23;15.80;;;21.00;99.90;;;;;;5094996;28;20446;-61
2022/08/26 05:21:27;;;;;;;16.40;12.90;;;21.20;99.90;;;;;;5095011;28;20474;-62
2022/08/26 05:23:54;;;;;;;19.57;13.50;;;21.20;99.90;;;;;;5094346;28;20447;-61
2022/08/26 05:26:23;;;;;;;18.80;14.80;;;21.40;99.90;;;;;;5094411;28;20450;-62
2022/08/26 05:28:50;;;;;;;20.27;14.07;;;21.60;99.90;;;;;;5094666;28;20453;-62
2022/08/26 05:31:18;;;;;;;16.47;14.53;;;21.60;99.90;;;;;;5094686;28;20968;-62
2022/08/26 05:33:45;;;;;;;19.80;14.17;;;21.70;99.90;;;;;;5094626;28;20446;-61
2022/08/26 05:36:14;;;;;;;19.20;14.27;;;21.90;99.90;;;;;;5094363;28;20498;-61
2022/08/26 05:38:42;;;;;;;24.37;14.73;;;22.00;99.90;;;;;;5094436;28;20450;-61
2022/08/26 05:41:15;;;;;;;16.37;13.37;;;22.10;99.90;;;;;;5094350;28;20457;-62
2022/08/26 05:43:44;;;;;;;41.90;17.87;;;22.30;99.90;;;;;;5094546;28;20478;-62
2022/08/26 05:46:11;;;;;;;20.53;14.10;;;22.40;99.90;;;;;;5094385;28;20449;-62
2022/08/26 05:48:38;;;;;;;22.43;14.37;;;22.50;99.90;;;;;;5094018;28;20544;-61
2022/08/26 05:51:08;;;;;;;19.27;14.40;;;22.40;99.90;;;;;;5094086;28;20888;-62
2022/08/26 05:53:35;;;;;;;16.83;12.80;;;22.60;99.90;;;;;;5094007;28;20454;-62
2022/08/26 05:56:03;;;;;;;26.00;14.53;;;22.60;99.90;;;;;;5094238;28;20531;-61
2022/08/26 05:58:30;;;;;;;21.50;13.77;;;22.70;99.90;;;;;;5094113;28;20448;-62
2022/08/26 06:01:01;;;;;;;21.03;13.23;;;22.70;99.90;;;;;;5094127;28;20447;-62
2022/08/26 06:03:28;;;;;;;20.00;12.90;;;22.70;99.90;;;;;;5094020;28;20449;-62
2022/08/26 06:05:55;;;;;;;21.60;13.07;;;22.70;99.90;;;;;;5093817;28;20443;-62
2022/08/26 06:08:22;;;;;;;18.00;12.73;;;22.70;99.90;;;;;;5093831;28;20504;-61
2022/08/26 06:10:51;;;;;;;16.37;11.63;;;22.60;99.90;;;;;;5093969;28;20470;-62
2022/08/26 06:13:20;;;;;;;18.33;12.00;;;22.60;99.90;;;;;;5093817;28;20470;-62
2022/08/26 06:15:49;;;;;;;22.70;13.00;;;22.70;99.90;;;;;;5093692;28;20442;-61
2022/08/26 06:18:20;;;;;;;24.40;13.40;;;22.60;99.90;;;;;;5093586;28;20447;-61
2022/08/26 06:20:48;;;;;;;18.97;12.53;;;22.80;99.90;;;;;;5093503;28;20446;-62
2022/08/26 06:26:02;;;;;;;11.83;10.60;;;22.90;99.90;;;;;;5093419;28;20995;-61
2022/08/26 06:28:29;;;;;;;23.10;12.20;;;23.00;99.90;;;;;;5093454;28;20443;-62
2022/08/26 06:30:55;;;;;;;23.07;11.77;;;23.10;99.90;;;;;;5093226;28;20477;-62
2022/08/26 06:33:26;;;;;;;22.63;11.37;;;23.10;99.90;;;;;;5093592;28;20794;-62
2022/08/26 06:35:53;;;;;;;16.60;12.47;;;23.10;99.90;;;;;;5093264;28;20450;-62
2022/08/26 06:38:20;;;;;;;23.43;11.10;;;23.30;99.90;;;;;;5093381;28;20533;-62
2022/08/26 06:40:49;;;;;;;22.50;12.17;;;23.50;99.90;;;;;;5093268;28;20442;-62
2022/08/26 06:43:17;;;;;;;19.23;11.30;;;23.60;99.90;;;;;;5093180;28;20488;-61
2022/08/26 06:45:45;;;;;;;18.30;10.90;;;23.60;99.90;;;;;;5093099;28;20449;-62
2022/08/26 06:48:12;;;;;;;24.93;11.87;;;23.60;99.90;;;;;;5092848;28;20477;-62
2022/08/26 06:50:40;;;;;;;18.73;12.10;;;23.80;99.90;;;;;;5092956;28;20438;-62
2022/08/26 06:53:07;;;;;;;21.90;12.03;;;23.70;99.90;;;;;;5093044;28;20450;-61
2022/08/26 06:55:38;;;;;;;25.20;11.47;;;23.70;99.90;;;;;;5092864;28;20451;-61
2022/08/26 06:58:05;;;;;;;15.30;11.23;;;23.90;99.90;;;;;;5092738;28;20490;-61
2022/08/26 07:00:33;;;;;;;20.17;11.37;;;24.00;99.90;;;;;;5092930;28;20848;-62
2022/08/26 07:02:59;;;;;;;17.00;11.00;;;24.00;99.90;;;;;;5092952;28;20461;-62
2022/08/26 07:05:26;;;;;;;18.20;9.97;;;24.00;99.90;;;;;;5092722;28;20456;-61
2022/08/26 07:07:54;;;;;;;19.37;10.70;;;23.90;99.90;;;;;;5092775;28;20443;-61
2022/08/26 07:10:20;;;;;;;24.30;11.23;;;24.00;99.90;;;;;;5092687;28;20453;-61
2022/08/26 07:12:47;;;;;;;20.70;11.47;;;24.10;99.90;;;;;;5092489;28;20570;-62
2022/08/26 07:15:14;;;;;;;19.17;11.57;;;24.10;99.90;;;;;;5092963;28;20446;-62
2022/08/26 07:17:41;;;;;;;14.53;11.17;;;24.30;99.90;;;;;;5092793;28;20456;-62
2022/08/26 07:20:10;;;;;;;18.47;11.30;;;24.40;99.90;;;;;;5092538;28;20446;-62
2022/08/26 07:22:37;;;;;;;18.00;10.40;;;24.50;99.90;;;;;;5096529;28;20948;-62
2022/08/26 07:25:06;;;;;;;21.63;10.00;;;24.60;99.90;;;;;;5112780;28;20919;-62
2022/08/26 07:27:33;;;;;;;22.53;10.80;;;24.70;99.90;;;;;;5112579;28;20446;-62
2022/08/26 07:30:00;;;;;;;14.40;10.73;;;24.90;99.90;;;;;;5117952;28;20446;-62
2022/08/26 07:32:27;;;;;;;21.83;11.13;;;25.00;99.90;;;;;;5112569;28;20477;-62
2022/08/26 07:34:53;;;;;;;19.03;11.03;;;25.10;99.90;;;;;;5112909;28;20456;-62
2022/08/26 07:37:26;;;;;;;18.93;11.00;;;25.10;99.90;;;;;;5112911;28;20446;-64
2022/08/26 07:39:52;;;;;;;18.20;9.37;;;25.20;99.90;;;;;;5112652;28;20955;-62
2022/08/26 07:42:20;;;;;;;26.80;10.80;;;25.40;99.90;;;;;;5121329;28;20508;-61
2022/08/26 07:44:47;;;;;;;17.10;10.20;;;25.50;99.90;;;;;;5119684;28;20899;-61
2022/08/26 07:47:14;;;;;;;17.23;11.23;;;25.70;99.90;;;;;;5117907;27;20445;-61
2022/08/26 07:49:40;;;;;;;16.70;9.80;;;25.70;99.90;;;;;;5127771;27;20459;-61
2022/08/26 07:52:07;;;;;;;14.70;8.90;;;25.80;99.90;;;;;;5128007;27;20476;-61
2022/08/26 07:54:36;;;;;;;19.30;10.10;;;25.70;99.90;;;;;;5134115;27;20437;-61
2022/08/26 07:57:03;;;;;;;24.43;10.60;;;25.70;99.90;;;;;;5137067;27;20944;-61
2022/08/26 07:59:30;;;;;;;15.33;9.40;;;25.80;99.90;;;;;;5137093;27;21079;-61
2022/08/26 08:01:59;;;;;;;13.90;9.53;;;25.90;99.90;;;;;;5137221;27;20480;-61
2022/08/26 08:04:26;;;;;;;21.50;10.00;;;26.00;99.90;;;;;;5130653;27;20440;-62
2022/08/26 08:06:53;;;;;;;22.27;9.90;;;25.80;99.90;;;;;;5137027;27;20440;-62
2022/08/26 08:09:19;;;;;;;14.30;8.73;;;25.80;99.90;;;;;;5137057;27;20436;-61
2022/08/26 08:11:46;;;;;;;21.90;9.57;;;26.00;99.90;;;;;;5136811;27;20514;-61
2022/08/26 08:14:13;;;;;;;21.33;8.50;;;26.30;99.90;;;;;;5136803;27;20818;-61
2022/08/26 08:16:41;;;;;;;13.80;10.10;;;26.30;99.90;;;;;;5109582;27;20456;-62
2022/08/26 08:19:08;;;;;;;21.13;8.80;;;26.40;99.90;;;;;;5114445;27;20649;-61
2022/08/26 08:21:34;;;;;;;18.83;8.80;;;26.30;99.90;;;;;;5112009;28;20453;-61
2022/08/26 08:24:00;;;;;;;15.93;9.40;;;26.30;99.90;;;;;;5111030;28;20453;-62
2022/08/26 08:26:27;;;;;;;11.20;7.50;;;26.40;99.90;;;;;;5095622;28;20967;-62
2022/08/26 08:28:56;;;;;;;17.77;8.10;;;26.60;99.90;;;;;;5094804;28;20450;-63
2022/08/26 08:31:25;;;;;;;22.80;10.03;;;26.80;99.90;;;;;;5095432;28;20464;-61
2022/08/26 08:33:53;;;;;;;14.87;8.50;;;26.80;99.90;;;;;;5097593;28;20541;-62
2022/08/26 08:36:21;;;;;;;16.47;7.20;;;26.60;99.90;;;;;;5115176;28;20477;-62
2022/08/26 08:38:48;;;;;;;17.00;8.43;;;26.60;99.90;;;;;;5115749;28;20452;-61
2022/08/26 08:41:26;;;;;;;21.43;7.77;;;26.70;99.90;;;;;;5114624;28;20508;-60
2022/08/26 08:43:53;;;;;;;14.30;7.83;;;26.70;99.90;;;;;;5099200;28;20802;-66
2022/08/26 08:46:20;;;;;;;21.10;7.50;;;26.60;99.90;;;;;;5093882;28;20457;-65
2022/08/26 08:48:50;;;;;;;14.07;7.57;;;26.50;99.90;;;;;;5094541;28;20496;-67
2022/08/26 08:51:30;;;;;;;14.40;7.30;;;26.70;99.90;;;;;;5095183;28;20457;-59
2022/08/26 08:53:57;;;;;;;20.03;7.60;;;26.70;99.90;;;;;;5094428;28;20519;-57
2022/08/26 08:56:28;;;;;;;19.50;7.67;;;26.70;99.90;;;;;;5103997;28;20489;-57
2022/08/26 08:59:05;;;;;;;16.60;7.67;;;26.70;99.90;;;;;;5094373;28;20804;-58
2022/08/26 09:01:44;;;;;;;17.73;7.90;;;26.80;99.90;;;;;;5102053;28;20480;-61
2022/08/26 09:04:22;;;;;;;19.20;8.40;;;27.00;99.90;;;;;;5094509;28;20457;-60
2022/08/26 09:06:54;;;;;;;17.97;8.30;;;27.00;99.90;;;;;;5095569;28;20507;-62
2022/08/26 09:09:24;;;;;;;20.40;8.30;;;27.20;99.90;;;;;;5115066;28;20540;-62
2022/08/26 09:11:51;;;;;;;20.00;8.30;;;27.20;99.90;;;;;;5110041;28;20470;-62
2022/08/26 09:14:17;;;;;;;21.80;7.90;;;27.40;99.90;;;;;;5107172;28;20448;-57
2022/08/26 09:16:50;;;;;;;20.63;8.57;;;27.50;99.90;;;;;;5119726;27;20449;-59
2022/08/26 09:19:21;;;;;;;19.33;8.70;;;27.20;99.90;;;;;;5097820;28;20492;-60
2022/08/26 09:21:56;;;;;;;20.40;7.47;;;27.30;99.90;;;;;;5102883;28;20568;-58
2022/08/26 09:24:23;;;;;;;19.43;8.33;;;27.50;99.90;;;;;;5110095;28;20455;-61
2022/08/26 09:26:51;;;;;;;16.13;8.07;;;27.60;99.90;;;;;;5114281;28;20837;-60
2022/08/26 09:29:24;;;;;;;22.40;8.00;;;27.70;99.90;;;;;;5100776;28;20849;-61
2022/08/26 09:31:51;;;;;;;18.30;7.60;;;27.90;99.90;;;;;;5114932;28;20480;-61
2022/08/26 09:34:21;;;;;;;20.00;7.87;;;28.00;99.90;;;;;;5114699;28;20441;-60
2022/08/26 09:36:50;;;;;;;14.30;7.50;;;27.90;99.90;;;;;;5106599;28;21988;-59
2022/08/26 09:39:32;;;;;;;14.87;7.70;;;27.90;99.90;;;;;;5094113;28;20568;-61
2022/08/26 09:42:13;;;;;;;17.20;7.03;;;28.10;99.90;;;;;;5106351;28;20453;-59
2022/08/26 09:44:54;;;;;;;23.53;8.00;;;27.90;99.90;;;;;;5101451;28;20946;-60
2022/08/26 09:47:24;;;;;;;15.10;7.27;;;28.00;99.90;;;;;;5119722;27;20535;-59
2022/08/26 09:49:58;;;;;;;16.07;7.80;;;28.00;99.90;;;;;;5107860;28;20445;-64
2022/08/26 09:52:26;;;;;;;20.57;7.87;;;28.20;99.90;;;;;;5106098;28;20820;-60
2022/08/26 09:55:05;;;;;;;27.27;8.23;;;28.30;99.90;;;;;;5114213;28;20449;-58
2022/08/26 09:57:34;;;;;;;19.53;7.00;;;28.40;99.90;;;;;;5103412;28;20533;-59
2022/08/26 10:00:02;;;;;;;18.10;8.07;;;28.50;99.90;;;;;;5104405;28;20482;-60
2022/08/26 10:02:37;;;;;;;15.10;8.27;;;28.40;99.90;;;;;;5096256;28;20458;-59
2022/08/26 10:05:07;;;;;;;17.57;7.40;;;28.50;99.90;;;;;;5108516;28;20937;-59
2022/08/26 10:07:42;;;;;;;23.80;7.97;;;28.40;99.90;;;;;;5102536;28;20889;-65
2022/08/26 10:10:15;;;;;;;19.83;7.70;;;28.50;99.90;;;;;;5095436;28;20457;-65
2022/08/26 10:12:58;;;;;;;16.13;6.93;;;28.60;99.90;;;;;;5097043;28;20478;-66
2022/08/26 10:15:27;;;;;;;24.43;8.03;;;28.70;99.90;;;;;;5093896;28;20814;-66
2022/08/26 10:18:01;;;;;;;28.13;9.33;;;28.60;99.90;;;;;;5095981;28;20458;-66
2022/08/26 10:20:34;;;;;;;22.80;9.03;;;28.30;99.90;;;;;;5093532;28;20450;-66
2022/08/26 10:23:04;;;;;;;27.13;8.80;;;28.40;99.90;;;;;;5093794;28;20937;-66
2022/08/26 10:25:45;;;;;;;19.60;7.40;;;28.50;99.90;;;;;;5093814;28;20454;-66
2022/08/26 10:28:22;;;;;;;21.93;7.83;;;28.50;99.90;;;;;;5093285;28;20442;-66
2022/08/26 10:30:53;;;;;;;17.90;8.43;;;28.50;99.90;;;;;;5093243;28;20445;-66
2022/08/26 10:33:20;;;;;;;15.10;8.70;;;28.50;99.90;;;;;;5093359;28;20536;-66
2022/08/26 10:35:52;;;;;;;18.43;8.93;;;28.40;99.90;;;;;;5093353;28;20453;-66
2022/08/26 10:38:26;;;;;;;15.57;8.13;;;28.30;99.90;;;;;;5093420;28;20819;-66
2022/08/26 10:41:01;;;;;;;17.40;8.90;;;28.50;99.90;;;;;;5093422;28;20500;-66
2022/08/26 10:43:32;;;;;;;20.50;9.00;;;28.50;99.90;;;;;;5093556;28;20805;-66
2022/08/26 10:46:03;;;;;;;17.53;8.80;;;28.50;99.90;;;;;;5093296;28;20852;-67
2022/08/26 10:48:38;;;;;;;13.00;8.10;;;28.70;99.90;;;;;;5093037;28;20613;-66
2022/08/26 10:51:05;;;;;;;15.77;7.93;;;28.40;99.90;;;;;;5093168;28;20453;-66
2022/08/26 10:53:44;;;;;;;26.83;10.20;;;28.30;99.90;;;;;;5092939;28;20474;-66
2022/08/26 10:56:22;;;;;;;15.13;8.43;;;28.50;99.90;;;;;;5093193;28;20443;-66
2022/08/26 10:58:58;;;;;;;17.30;8.10;;;28.80;99.90;;;;;;5092970;28;20448;-66
2022/08/26 11:01:42;;;;;;;19.43;7.93;;;28.70;99.90;;;;;;5093138;28;20446;-66
2022/08/26 11:04:23;;;;;;;16.77;8.30;;;28.50;99.90;;;;;;5092892;28;20482;-66
2022/08/26 11:07:09;;;;;;;22.03;9.27;;;28.40;99.90;;;;;;5092958;28;20450;-66
2022/08/26 11:09:45;;;;;;;18.93;8.47;;;28.40;99.90;;;;;;5092775;28;20456;-66
2022/08/26 11:12:46;;;;;;;18.67;8.27;;;28.40;99.90;;;;;;5092893;28;20530;-66
2022/08/26 11:15:34;;;;;;;18.20;8.30;;;28.30;99.90;;;;;;5092936;28;20478;-66
2022/08/26 11:18:03;;;;;;;12.10;7.57;;;28.30;99.90;;;;;;5092716;28;20447;-66
2022/08/26 11:20:33;;;;;;;18.93;8.07;;;28.20;99.90;;;;;;5092497;28;20462;-66
2022/08/26 11:23:33;;;;;;;23.60;9.43;;;28.10;99.90;;;;;;5092185;28;20507;-66
2022/08/26 11:26:14;;;;;;;18.73;8.50;;;28.00;99.90;;;;;;5092647;28;20568;-66
2022/08/26 11:28:43;;;;;;;19.77;8.03;;;28.10;99.90;;;;;;5092731;28;20465;-66
2022/08/26 11:31:12;;;;;;;19.03;8.57;;;28.10;99.90;;;;;;5092631;28;20478;-66
2022/08/26 11:33:50;;;;;;;19.40;9.00;;;28.20;99.90;;;;;;5092645;28;20512;-66
2022/08/26 11:36:37;;;;;;;17.27;8.30;;;28.20;99.90;;;;;;5092704;28;20449;-66
2022/08/26 11:39:15;;;;;;;16.87;8.90;;;28.20;99.90;;;;;;5092678;28;20500;-66
2022/08/26 11:41:43;;;;;;;11.03;8.10;;;28.30;99.90;;;;;;5092879;28;20443;-66
2022/08/26 11:44:10;;;;;;;20.17;9.10;;;28.40;99.90;;;;;;5092390;28;20962;-66
2022/08/26 11:46:37;;;;;;;17.33;8.67;;;28.50;99.90;;;;;;5092548;28;20442;-66
2022/08/26 11:49:07;;;;;;;19.00;8.10;;;28.50;99.90;;;;;;5092237;28;20535;-66
2022/08/26 11:51:36;;;;;;;13.60;8.33;;;28.50;99.90;;;;;;5092504;28;20992;-66
2022/08/26 11:54:11;;;;;;;24.33;8.50;;;28.50;99.90;;;;;;5092259;28;21157;-66
2022/08/26 11:56:40;;;;;;;15.67;7.77;;;28.50;99.90;;;;;;5092337;28;21050;-66
2022/08/26 11:59:08;;;;;;;18.03;7.33;;;28.30;99.90;;;;;;5092165;28;20446;-66
2022/08/26 12:01:37;;;;;;;15.10;7.90;;;28.00;99.90;;;;;;5092457;28;20852;-66
2022/08/26 12:04:07;;;;;;;15.90;8.30;;;27.70;99.90;;;;;;5092390;28;20446;-66
2022/08/26 12:06:37;;;;;;;20.13;7.53;;;27.30;99.90;;;;;;5092215;28;20802;-66
2022/08/26 12:09:10;;;;;;;9.27;7.13;;;27.00;99.90;;;;;;5092437;28;20447;-66
2022/08/26 12:11:37;;;;;;;13.13;7.23;;;26.90;99.90;;;;;;5092475;28;20530;-66
2022/08/26 12:14:06;;;;;;;8.50;5.63;;;26.70;99.90;;;;;;5092309;28;20564;-66
2022/08/26 12:16:35;;;;;;;7.70;5.20;;;26.60;99.90;;;;;;5092296;28;20477;-66
2022/08/26 12:19:02;;;;;;;11.03;5.97;;;26.40;99.90;;;;;;5092143;28;20860;-66
2022/08/26 12:21:31;;;;;;;10.40;6.33;;;26.30;99.90;;;;;;5092388;28;20443;-66
2022/08/26 12:23:59;;;;;;;8.90;5.63;;;26.30;99.90;;;;;;5091882;28;20969;-66
2022/08/26 12:26:29;;;;;;;7.47;5.83;;;26.30;99.90;;;;;;5092091;28;20478;-66
2022/08/26 12:28:59;;;;;;;6.00;5.50;;;26.10;99.90;;;;;;5092124;28;20476;-66
2022/08/26 12:31:29;;;;;;;6.40;5.80;;;26.00;99.90;;;;;;5092259;28;20802;-66
2022/08/26 12:33:58;;;;;;;9.60;5.80;;;26.00;99.90;;;;;;5093398;28;20481;-66
2022/08/26 12:36:30;;;;;;;13.20;6.57;;;25.80;99.90;;;;;;5095855;28;20446;-66
2022/08/26 12:39:05;;;;;;;8.80;6.27;;;25.70;99.90;;;;;;5095754;28;20450;-66
2022/08/26 12:41:43;;;;;;;7.00;6.30;;;25.60;99.90;;;;;;5095580;28;20449;-66
2022/08/26 12:44:35;;;;;;;6.97;6.37;;;25.60;99.90;;;;;;5095367;28;20481;-66